sensor_id;sensor_type;location;lat;lon;timestamp;pressure;altitude;pressure_sealevel;temperature;humidity
53522;BME280;39398;48.382;9.802;2022-11-14T00:00:40;93780.31;;;4.25;100.00
53522;BME280;39398;48.382;9.802;2022-11-14T00:01:42;93772.59;;;4.15;100.00
53522;BME280;39398;48.382;9.802;2022-11-14T00:02:43;93779.16;;;4.19;100.00
53522;BME280;39398;48.382;9.802;2022-11-14T00:03:48;93773.22;;;4.09;100.00
53522;BME280;39398;48.382;9.802;2022-11-14T00:04:50;93777.88;;;3.97;100.00
53522;BME280;39398;48.382;9.802;2022-11-14T00:05:51;93776.25;;;3.96;100.00
53522;BME280;39398;48.382;9.802;2022-11-14T00:06:54;93785.22;;;4.28;100.00
53522;BME280;39398;48.382;9.802;2022-11-14T00:07:56;93782.63;;;4.28;100.00
53522;BME280;39398;48.382;9.802;2022-11-14T00:08:57;93778.56;;;4.00;100.00
53522;BME280;39398;48.382;9.802;2022-11-14T00:09:59;93777.78;;;4.07;100.00
53522;BME280;39398;48.382;9.802;2022-11-14T00:11:01;93778.59;;;4.08;100.00
53522;BME280;39398;48.382;9.802;2022-11-14T00:12:02;93780.34;;;3.99;100.00
53522;BME280;39398;48.382;9.802;2022-11-14T00:13:04;93774.72;;;4.20;100.00
53522;BME280;39398;48.382;9.802;2022-11-14T00:14:05;93776.72;;;4.26;100.00
53522;BME280;39398;48.382;9.802;2022-11-14T00:15:08;93781.50;;;4.31;100.00
53522;BME280;39398;48.382;9.802;2022-11-14T00:16:09;93775.22;;;4.15;100.00
53522;BME280;39398;48.382;9.802;2022-11-14T00:17:11;93778.97;;;4.21;100.00
53522;BME280;39398;48.382;9.802;2022-11-14T00:18:12;93773.09;;;4.19;100.00
53522;BME280;39398;48.382;9.802;2022-11-14T00:19:14;93776.22;;;4.23;100.00
53522;BME280;39398;48.382;9.802;2022-11-14T00:20:15;93779.19;;;4.28;100.00
53522;BME280;39398;48.382;9.802;2022-11-14T00:21:17;93774.25;;;3.90;100.00
53522;BME280;39398;48.382;9.802;2022-11-14T00:22:20;93772.97;;;4.29;100.00
53522;BME280;39398;48.382;9.802;2022-11-14T00:23:21;93772.47;;;4.25;100.00
53522;BME280;39398;48.382;9.802;2022-11-14T00:24:23;93767.41;;;4.24;100.00
53522;BME280;39398;48.382;9.802;2022-11-14T00:25:24;93765.88;;;4.47;100.00
53522;BME280;39398;48.382;9.802;2022-11-14T00:26:26;93763.41;;;4.46;100.00
53522;BME280;39398;48.382;9.802;2022-11-14T00:27:27;93758.66;;;4.49;100.00
53522;BME280;39398;48.382;9.802;2022-11-14T00:28:29;93758.03;;;4.55;100.00
53522;BME280;39398;48.382;9.802;2022-11-14T00:29:31;93753.81;;;4.54;100.00
53522;BME280;39398;48.382;9.802;2022-11-14T00:30:32;93751.38;;;4.61;100.00
53522;BME280;39398;48.382;9.802;2022-11-14T00:31:34;93749.78;;;4.26;100.00
53522;BME280;39398;48.382;9.802;2022-11-14T00:32:35;93753.13;;;4.44;100.00
53522;BME280;39398;48.382;9.802;2022-11-14T00:33:37;93751.63;;;4.41;100.00
53522;BME280;39398;48.382;9.802;2022-11-14T00:34:38;93746.78;;;4.55;100.00
53522;BME280;39398;48.382;9.802;2022-11-14T00:35:39;93748.25;;;4.65;100.00
53522;BME280;39398;48.382;9.802;2022-11-14T00:36:41;93760.69;;;4.72;100.00
53522;BME280;39398;48.382;9.802;2022-11-14T00:37:44;93753.47;;;4.57;100.00
53522;BME280;39398;48.382;9.802;2022-11-14T00:38:45;93757.09;;;4.56;100.00
53522;BME280;39398;48.382;9.802;2022-11-14T00:39:47;93756.91;;;4.58;100.00
53522;BME280;39398;48.382;9.802;2022-11-14T00:40:48;93754.47;;;4.56;100.00
53522;BME280;39398;48.382;9.802;2022-11-14T00:41:50;93753.94;;;4.53;100.00
53522;BME280;39398;48.382;9.802;2022-11-14T00:42:52;93753.94;;;4.53;100.00
53522;BME280;39398;48.382;9.802;2022-11-14T00:43:53;93752.13;;;4.45;100.00
53522;BME280;39398;48.382;9.802;2022-11-14T00:44:54;93743.34;;;4.54;100.00
53522;BME280;39398;48.382;9.802;2022-11-14T00:45:56;93744.06;;;4.30;100.00
53522;BME280;39398;48.382;9.802;2022-11-14T00:46:57;93739.69;;;4.31;100.00
53522;BME280;39398;48.382;9.802;2022-11-14T00:47:59;93740.81;;;4.28;100.00
53522;BME280;39398;48.382;9.802;2022-11-14T00:49:00;93744.25;;;4.37;100.00
53522;BME280;39398;48.382;9.802;2022-11-14T00:50:03;93747.53;;;4.31;100.00
53522;BME280;39398;48.382;9.802;2022-11-14T00:51:05;93744.06;;;4.22;100.00
53522;BME280;39398;48.382;9.802;2022-11-14T00:52:06;93744.00;;;4.14;100.00
53522;BME280;39398;48.382;9.802;2022-11-14T00:53:09;93752.94;;;4.03;100.00
53522;BME280;39398;48.382;9.802;2022-11-14T00:54:11;93756.81;;;4.25;100.00
53522;BME280;39398;48.382;9.802;2022-11-14T00:55:12;93750.31;;;4.37;100.00
53522;BME280;39398;48.382;9.802;2022-11-14T00:56:14;93755.25;;;4.49;100.00
53522;BME280;39398;48.382;9.802;2022-11-14T00:57:15;93750.66;;;4.42;100.00
53522;BME280;39398;48.382;9.802;2022-11-14T00:58:17;93747.09;;;4.52;100.00
53522;BME280;39398;48.382;9.802;2022-11-14T00:59:18;93748.53;;;4.04;100.00
53522;BME280;39398;48.382;9.802;2022-11-14T01:00:20;93741.25;;;4.24;100.00
53522;BME280;39398;48.382;9.802;2022-11-14T01:01:21;93737.06;;;4.31;100.00
53522;BME280;39398;48.382;9.802;2022-11-14T01:02:23;93737.88;;;4.31;100.00
53522;BME280;39398;48.382;9.802;2022-11-14T01:03:24;93736.72;;;4.34;100.00
53522;BME280;39398;48.382;9.802;2022-11-14T01:04:26;93748.47;;;4.22;100.00
53522;BME280;39398;48.382;9.802;2022-11-14T01:05:28;93752.63;;;4.06;100.00
53522;BME280;39398;48.382;9.802;2022-11-14T01:06:29;93756.31;;;4.22;100.00
53522;BME280;39398;48.382;9.802;2022-11-14T01:07:30;93765.53;;;4.08;100.00
53522;BME280;39398;48.382;9.802;2022-11-14T01:08:34;93760.22;;;3.91;100.00
53522;BME280;39398;48.382;9.802;2022-11-14T01:09:35;93758.22;;;3.85;100.00
53522;BME280;39398;48.382;9.802;2022-11-14T01:10:38;93763.09;;;4.14;100.00
53522;BME280;39398;48.382;9.802;2022-11-14T01:11:40;93761.91;;;4.01;100.00
53522;BME280;39398;48.382;9.802;2022-11-14T01:12:41;93765.00;;;3.96;100.00
53522;BME280;39398;48.382;9.802;2022-11-14T01:13:43;93760.94;;;3.76;100.00
53522;BME280;39398;48.382;9.802;2022-11-14T01:14:44;93757.00;;;3.97;100.00
53522;BME280;39398;48.382;9.802;2022-11-14T01:15:47;93762.88;;;4.00;100.00
53522;BME280;39398;48.382;9.802;2022-11-14T01:16:49;93753.50;;;4.15;100.00
53522;BME280;39398;48.382;9.802;2022-11-14T01:17:51;93748.34;;;4.31;100.00
53522;BME280;39398;48.382;9.802;2022-11-14T01:18:52;93748.34;;;4.39;100.00
53522;BME280;39398;48.382;9.802;2022-11-14T01:19:53;93750.00;;;4.40;100.00
53522;BME280;39398;48.382;9.802;2022-11-14T01:20:55;93753.13;;;4.44;100.00
53522;BME280;39398;48.382;9.802;2022-11-14T01:21:56;93757.75;;;4.24;100.00
53522;BME280;39398;48.382;9.802;2022-11-14T01:23:05;93748.53;;;4.38;100.00
53522;BME280;39398;48.382;9.802;2022-11-14T01:24:08;93749.22;;;4.14;100.00
53522;BME280;39398;48.382;9.802;2022-11-14T01:25:09;93748.09;;;4.16;100.00
53522;BME280;39398;48.382;9.802;2022-11-14T01:26:12;93742.41;;;4.21;100.00
53522;BME280;39398;48.382;9.802;2022-11-14T01:27:14;93748.22;;;4.07;100.00
53522;BME280;39398;48.382;9.802;2022-11-14T01:28:17;93738.97;;;4.20;100.00
53522;BME280;39398;48.382;9.802;2022-11-14T01:29:19;93756.38;;;4.04;100.00
53522;BME280;39398;48.382;9.802;2022-11-14T01:30:20;93746.97;;;4.19;100.00
53522;BME280;39398;48.382;9.802;2022-11-14T01:31:23;93743.13;;;4.39;100.00
53522;BME280;39398;48.382;9.802;2022-11-14T01:32:26;93743.31;;;4.04;100.00
53522;BME280;39398;48.382;9.802;2022-11-14T01:33:27;93749.84;;;4.00;100.00
53522;BME280;39398;48.382;9.802;2022-11-14T01:34:29;93751.16;;;4.04;100.00
53522;BME280;39398;48.382;9.802;2022-11-14T01:35:30;93751.03;;;4.13;100.00
53522;BME280;39398;48.382;9.802;2022-11-14T01:36:32;93753.19;;;4.18;100.00
53522;BME280;39398;48.382;9.802;2022-11-14T01:37:33;93753.19;;;4.18;100.00
53522;BME280;39398;48.382;9.802;2022-11-14T01:38:36;93754.88;;;4.01;100.00
53522;BME280;39398;48.382;9.802;2022-11-14T01:39:39;93758.75;;;4.23;100.00
53522;BME280;39398;48.382;9.802;2022-11-14T01:40:41;93745.31;;;4.10;100.00
53522;BME280;39398;48.382;9.802;2022-11-14T01:41:43;93745.22;;;3.93;100.00
53522;BME280;39398;48.382;9.802;2022-11-14T01:44:40;93753.59;;;3.71;100.00
53522;BME280;39398;48.382;9.802;2022-11-14T01:45:51;93747.97;;;3.92;100.00
53522;BME280;39398;48.382;9.802;2022-11-14T01:46:55;93740.72;;;3.78;100.00
53522;BME280;39398;48.382;9.802;2022-11-14T01:47:57;93744.91;;;3.96;100.00
53522;BME280;39398;48.382;9.802;2022-11-14T01:49:00;93736.53;;;3.85;100.00
53522;BME280;39398;48.382;9.802;2022-11-14T01:50:05;93742.81;;;4.00;100.00
53522;BME280;39398;48.382;9.802;2022-11-14T01:51:16;93741.91;;;3.83;100.00
53522;BME280;39398;48.382;9.802;2022-11-14T01:52:20;93745.28;;;3.76;100.00
53522;BME280;39398;48.382;9.802;2022-11-14T01:53:23;93743.91;;;3.89;100.00
53522;BME280;39398;48.382;9.802;2022-11-14T01:54:29;93740.03;;;3.67;100.00
53522;BME280;39398;48.382;9.802;2022-11-14T01:55:34;93739.75;;;3.79;100.00
53522;BME280;39398;48.382;9.802;2022-11-14T01:56:39;93740.94;;;3.58;100.00
53522;BME280;39398;48.382;9.802;2022-11-14T01:57:45;93745.34;;;3.84;100.00
53522;BME280;39398;48.382;9.802;2022-11-14T01:58:51;93738.03;;;3.95;100.00
53522;BME280;39398;48.382;9.802;2022-11-14T01:59:57;93736.16;;;4.06;100.00
53522;BME280;39398;48.382;9.802;2022-11-14T02:00:59;93733.25;;;3.83;100.00
53522;BME280;39398;48.382;9.802;2022-11-14T02:02:05;93738.50;;;3.91;100.00
53522;BME280;39398;48.382;9.802;2022-11-14T02:03:07;93740.94;;;3.84;100.00
53522;BME280;39398;48.382;9.802;2022-11-14T02:04:09;93741.19;;;4.07;100.00
53522;BME280;39398;48.382;9.802;2022-11-14T02:05:16;93741.81;;;4.01;100.00
53522;BME280;39398;48.382;9.802;2022-11-14T02:06:20;93740.44;;;3.89;100.00
53522;BME280;39398;48.382;9.802;2022-11-14T02:07:23;93745.09;;;3.69;100.00
53522;BME280;39398;48.382;9.802;2022-11-14T02:08:25;93740.88;;;4.10;100.00
53522;BME280;39398;48.382;9.802;2022-11-14T02:09:29;93735.66;;;4.02;100.00
53522;BME280;39398;48.382;9.802;2022-11-14T02:10:33;93739.09;;;3.77;100.00
53522;BME280;39398;48.382;9.802;2022-11-14T02:11:37;93746.28;;;3.83;100.00
53522;BME280;39398;48.382;9.802;2022-11-14T02:12:40;93751.06;;;3.87;100.00
53522;BME280;39398;48.382;9.802;2022-11-14T02:13:41;93747.38;;;3.72;100.00
53522;BME280;39398;48.382;9.802;2022-11-14T02:14:44;93752.63;;;4.06;100.00
53522;BME280;39398;48.382;9.802;2022-11-14T02:15:46;93746.59;;;4.06;100.00
53522;BME280;39398;48.382;9.802;2022-11-14T02:16:48;93744.81;;;4.14;100.00
53522;BME280;39398;48.382;9.802;2022-11-14T02:18:09;93741.06;;;4.17;100.00
53522;BME280;39398;48.382;9.802;2022-11-14T02:19:13;93736.84;;;4.16;100.00
53522;BME280;39398;48.382;9.802;2022-11-14T02:20:21;93736.34;;;4.20;100.00
53522;BME280;39398;48.382;9.802;2022-11-14T02:21:23;93732.03;;;4.37;100.00
53522;BME280;39398;48.382;9.802;2022-11-14T02:22:24;93723.66;;;4.34;100.00
53522;BME280;39398;48.382;9.802;2022-11-14T02:23:27;93722.03;;;4.33;100.00
53522;BME280;39398;48.382;9.802;2022-11-14T02:24:29;93726.31;;;4.42;100.00
53522;BME280;39398;48.382;9.802;2022-11-14T02:25:31;93721.25;;;4.49;100.00
53522;BME280;39398;48.382;9.802;2022-11-14T02:26:33;93727.31;;;4.49;100.00
53522;BME280;39398;48.382;9.802;2022-11-14T02:27:38;93723.72;;;4.58;100.00
53522;BME280;39398;48.382;9.802;2022-11-14T02:28:40;93720.47;;;4.56;100.00
53522;BME280;39398;48.382;9.802;2022-11-14T02:29:41;93716.47;;;4.28;100.00
53522;BME280;39398;48.382;9.802;2022-11-14T02:30:43;93715.81;;;4.26;100.00
53522;BME280;39398;48.382;9.802;2022-11-14T02:31:44;93710.13;;;4.47;100.00
53522;BME280;39398;48.382;9.802;2022-11-14T02:32:46;93710.34;;;4.53;100.00
53522;BME280;39398;48.382;9.802;2022-11-14T02:34:07;93697.72;;;4.40;100.00
53522;BME280;39398;48.382;9.802;2022-11-14T02:35:08;93702.97;;;4.49;100.00
53522;BME280;39398;48.382;9.802;2022-11-14T02:36:11;93698.91;;;4.62;100.00
53522;BME280;39398;48.382;9.802;2022-11-14T02:37:13;93696.59;;;4.59;100.00
53522;BME280;39398;48.382;9.802;2022-11-14T02:38:14;93696.59;;;4.59;100.00
53522;BME280;39398;48.382;9.802;2022-11-14T02:39:16;93700.06;;;4.68;100.00
53522;BME280;39398;48.382;9.802;2022-11-14T02:40:18;93698.44;;;4.67;100.00
53522;BME280;39398;48.382;9.802;2022-11-14T02:41:19;93700.38;;;4.65;100.00
53522;BME280;39398;48.382;9.802;2022-11-14T02:42:21;93700.06;;;4.60;100.00
53522;BME280;39398;48.382;9.802;2022-11-14T02:43:22;93710.13;;;4.47;100.00
53522;BME280;39398;48.382;9.802;2022-11-14T02:44:23;93710.97;;;4.47;100.00
53522;BME280;39398;48.382;9.802;2022-11-14T02:45:25;93730.94;;;4.14;100.00
53522;BME280;39398;48.382;9.802;2022-11-14T02:46:27;93735.47;;;4.04;100.00
53522;BME280;39398;48.382;9.802;2022-11-14T02:47:28;93736.69;;;3.83;100.00
53522;BME280;39398;48.382;9.802;2022-11-14T02:48:33;93741.16;;;3.65;100.00
53522;BME280;39398;48.382;9.802;2022-11-14T02:49:34;93743.78;;;3.99;100.00
53522;BME280;39398;48.382;9.802;2022-11-14T02:50:35;93742.63;;;3.93;100.00
53522;BME280;39398;48.382;9.802;2022-11-14T02:51:38;93732.84;;;3.69;100.00
53522;BME280;39398;48.382;9.802;2022-11-14T02:52:40;93738.16;;;3.86;100.00
53522;BME280;39398;48.382;9.802;2022-11-14T02:53:41;93733.09;;;3.84;100.00
53522;BME280;39398;48.382;9.802;2022-11-14T02:54:43;93732.81;;;3.61;100.00
53522;BME280;39398;48.382;9.802;2022-11-14T02:55:44;93735.81;;;3.75;100.00
53522;BME280;39398;48.382;9.802;2022-11-14T02:56:46;93740.53;;;3.71;100.00
53522;BME280;39398;48.382;9.802;2022-11-14T02:57:47;93734.94;;;3.66;100.00
53522;BME280;39398;48.382;9.802;2022-11-14T02:58:49;93744.72;;;3.90;100.00
53522;BME280;39398;48.382;9.802;2022-11-14T02:59:50;93735.50;;;3.78;100.00
53522;BME280;39398;48.382;9.802;2022-11-14T03:00:51;93732.31;;;3.58;100.00
53522;BME280;39398;48.382;9.802;2022-11-14T03:02:13;93733.47;;;3.89;100.00
53522;BME280;39398;48.382;9.802;2022-11-14T03:03:14;93739.94;;;3.85;100.00
53522;BME280;39398;48.382;9.802;2022-11-14T03:04:16;93731.09;;;3.78;100.00
53522;BME280;39398;48.382;9.802;2022-11-14T03:05:17;93737.03;;;3.88;100.00
53522;BME280;39398;48.382;9.802;2022-11-14T03:06:19;93746.03;;;3.94;100.00
53522;BME280;39398;48.382;9.802;2022-11-14T03:07:21;93749.38;;;3.78;100.00
53522;BME280;39398;48.382;9.802;2022-11-14T03:08:23;93757.81;;;3.72;100.00
53522;BME280;39398;48.382;9.802;2022-11-14T03:09:24;93757.41;;;3.85;100.00
53522;BME280;39398;48.382;9.802;2022-11-14T03:10:26;93760.41;;;3.64;100.00
53522;BME280;39398;48.382;9.802;2022-11-14T03:11:27;93769.16;;;3.81;100.00
53522;BME280;39398;48.382;9.802;2022-11-14T03:12:29;93763.81;;;3.90;100.00
53522;BME280;39398;48.382;9.802;2022-11-14T03:13:31;93762.25;;;3.80;100.00
53522;BME280;39398;48.382;9.802;2022-11-14T03:14:32;93765.97;;;3.69;100.00
53522;BME280;39398;48.382;9.802;2022-11-14T03:15:35;93767.19;;;3.57;100.00
53522;BME280;39398;48.382;9.802;2022-11-14T03:16:37;93764.38;;;3.76;100.00
53522;BME280;39398;48.382;9.802;2022-11-14T03:17:39;93767.34;;;3.81;100.00
53522;BME280;39398;48.382;9.802;2022-11-14T03:18:40;93758.00;;;3.70;100.00
53522;BME280;39398;48.382;9.802;2022-11-14T03:19:41;93769.50;;;3.86;100.00
53522;BME280;39398;48.382;9.802;2022-11-14T03:20:43;93760.31;;;3.73;100.00
53522;BME280;39398;48.382;9.802;2022-11-14T03:21:44;93760.09;;;4.01;100.00
53522;BME280;39398;48.382;9.802;2022-11-14T03:22:47;93762.19;;;3.89;100.00
53522;BME280;39398;48.382;9.802;2022-11-14T03:23:49;93758.19;;;4.11;100.00
53522;BME280;39398;48.382;9.802;2022-11-14T03:24:51;93757.25;;;4.20;100.00
53522;BME280;39398;48.382;9.802;2022-11-14T03:25:52;93757.75;;;4.24;100.00
53522;BME280;39398;48.382;9.802;2022-11-14T03:26:54;93751.38;;;4.18;100.00
53522;BME280;39398;48.382;9.802;2022-11-14T03:27:55;93753.06;;;3.93;100.00
53522;BME280;39398;48.382;9.802;2022-11-14T03:28:57;93746.84;;;3.94;100.00
53522;BME280;39398;48.382;9.802;2022-11-14T03:29:58;93749.66;;;4.01;100.00
53522;BME280;39398;48.382;9.802;2022-11-14T03:31:00;93742.63;;;4.28;100.00
53522;BME280;39398;48.382;9.802;2022-11-14T03:32:01;93739.00;;;4.29;100.00
53522;BME280;39398;48.382;9.802;2022-11-14T03:33:03;93736.75;;;4.42;100.00
53522;BME280;39398;48.382;9.802;2022-11-14T03:34:04;93741.56;;;4.12;100.00
53522;BME280;39398;48.382;9.802;2022-11-14T03:35:07;93743.94;;;4.32;100.00
53522;BME280;39398;48.382;9.802;2022-11-14T03:36:08;93740.38;;;4.41;100.00
53522;BME280;39398;48.382;9.802;2022-11-14T03:37:10;93742.66;;;4.52;100.00
53522;BME280;39398;48.382;9.802;2022-11-14T03:38:13;93748.44;;;4.64;100.00
53522;BME280;39398;48.382;9.802;2022-11-14T03:39:14;93738.13;;;4.62;100.00
53522;BME280;39398;48.382;9.802;2022-11-14T03:40:16;93733.56;;;4.64;100.00
53522;BME280;39398;48.382;9.802;2022-11-14T03:41:17;93737.78;;;4.57;100.00
53522;BME280;39398;48.382;9.802;2022-11-14T03:42:19;93733.22;;;4.59;100.00
53522;BME280;39398;48.382;9.802;2022-11-14T03:43:20;93729.00;;;4.66;100.00
53522;BME280;39398;48.382;9.802;2022-11-14T03:44:22;93729.00;;;4.66;100.00
53522;BME280;39398;48.382;9.802;2022-11-14T03:45:23;93728.69;;;4.70;100.00
53522;BME280;39398;48.382;9.802;2022-11-14T03:46:25;93725.22;;;4.61;100.00
53522;BME280;39398;48.382;9.802;2022-11-14T03:47:26;93722.66;;;4.27;100.00
53522;BME280;39398;48.382;9.802;2022-11-14T03:48:28;93716.03;;;4.49;100.00
53522;BME280;39398;48.382;9.802;2022-11-14T03:49:30;93720.91;;;4.35;100.00
53522;BME280;39398;48.382;9.802;2022-11-14T03:50:32;93717.41;;;4.18;100.00
53522;BME280;39398;48.382;9.802;2022-11-14T03:51:37;93723.78;;;4.24;100.00
53522;BME280;39398;48.382;9.802;2022-11-14T03:52:38;93722.53;;;4.36;100.00
53522;BME280;39398;48.382;9.802;2022-11-14T03:53:41;93722.38;;;4.38;100.00
53522;BME280;39398;48.382;9.802;2022-11-14T03:54:43;93724.50;;;4.42;100.00
53522;BME280;39398;48.382;9.802;2022-11-14T03:55:44;93724.69;;;4.41;100.00
53522;BME280;39398;48.382;9.802;2022-11-14T03:56:46;93732.63;;;4.23;100.00
53522;BME280;39398;48.382;9.802;2022-11-14T03:57:47;93731.94;;;4.13;100.00
53522;BME280;39398;48.382;9.802;2022-11-14T03:58:48;93727.69;;;4.20;100.00
53522;BME280;39398;48.382;9.802;2022-11-14T03:59:50;93726.66;;;4.05;100.00
53522;BME280;39398;48.382;9.802;2022-11-14T04:00:51;93732.97;;;4.28;100.00
53522;BME280;39398;48.382;9.802;2022-11-14T04:01:53;93725.38;;;4.09;100.00
53522;BME280;39398;48.382;9.802;2022-11-14T04:02:55;93739.59;;;4.14;100.00
53522;BME280;39398;48.382;9.802;2022-11-14T04:03:56;93730.81;;;4.24;100.00
53522;BME280;39398;48.382;9.802;2022-11-14T04:04:57;93733.78;;;3.94;100.00
53522;BME280;39398;48.382;9.802;2022-11-14T04:05:59;93733.41;;;4.15;100.00
53522;BME280;39398;48.382;9.802;2022-11-14T04:07:00;93733.34;;;3.99;100.00
53522;BME280;39398;48.382;9.802;2022-11-14T04:08:03;93730.19;;;3.87;100.00
53522;BME280;39398;48.382;9.802;2022-11-14T04:09:06;93726.97;;;4.02;100.00
53522;BME280;39398;48.382;9.802;2022-11-14T04:10:08;93733.22;;;4.09;100.00
53522;BME280;39398;48.382;9.802;2022-11-14T04:11:09;93741.69;;;4.11;100.00
53522;BME280;39398;48.382;9.802;2022-11-14T04:12:11;93744.63;;;4.08;100.00
53522;BME280;39398;48.382;9.802;2022-11-14T04:13:16;93739.41;;;4.08;100.00
53522;BME280;39398;48.382;9.802;2022-11-14T04:14:17;93738.00;;;3.87;100.00
53522;BME280;39398;48.382;9.802;2022-11-14T04:15:19;93742.69;;;4.10;100.00
53522;BME280;39398;48.382;9.802;2022-11-14T04:16:20;93744.50;;;4.09;100.00
53522;BME280;39398;48.382;9.802;2022-11-14T04:17:22;93738.03;;;3.95;100.00
53522;BME280;39398;48.382;9.802;2022-11-14T04:18:24;93734.63;;;4.37;100.00
53522;BME280;39398;48.382;9.802;2022-11-14T04:19:26;93723.88;;;4.40;100.00
53522;BME280;39398;48.382;9.802;2022-11-14T04:20:27;93721.56;;;4.37;100.00
53522;BME280;39398;48.382;9.802;2022-11-14T04:21:29;93719.00;;;4.11;100.00
53522;BME280;39398;48.382;9.802;2022-11-14T04:22:30;93715.19;;;4.40;100.00
53522;BME280;39398;48.382;9.802;2022-11-14T04:23:32;93707.91;;;4.60;100.00
53522;BME280;39398;48.382;9.802;2022-11-14T04:24:34;93713.13;;;4.60;100.00
53522;BME280;39398;48.382;9.802;2022-11-14T04:25:36;93717.91;;;4.73;100.00
53522;BME280;39398;48.382;9.802;2022-11-14T04:26:37;93712.97;;;4.53;100.00
53522;BME280;39398;48.382;9.802;2022-11-14T04:27:39;93715.19;;;4.40;100.00
53522;BME280;39398;48.382;9.802;2022-11-14T04:28:40;93718.97;;;4.37;100.00
53522;BME280;39398;48.382;9.802;2022-11-14T04:29:41;93717.84;;;4.48;100.00
53522;BME280;39398;48.382;9.802;2022-11-14T04:30:43;93711.97;;;4.62;100.00
53522;BME280;39398;48.382;9.802;2022-11-14T04:31:44;93703.31;;;4.62;100.00
53522;BME280;39398;48.382;9.802;2022-11-14T04:32:46;93704.13;;;4.54;100.00
53522;BME280;39398;48.382;9.802;2022-11-14T04:33:47;93702.47;;;4.45;100.00
53522;BME280;39398;48.382;9.802;2022-11-14T04:34:49;93707.38;;;4.48;100.00
53522;BME280;39398;48.382;9.802;2022-11-14T04:35:50;93702.00;;;4.58;100.00
53522;BME280;39398;48.382;9.802;2022-11-14T04:36:52;93704.97;;;4.63;100.00
53522;BME280;39398;48.382;9.802;2022-11-14T04:37:53;93704.50;;;4.76;100.00
53522;BME280;39398;48.382;9.802;2022-11-14T04:38:55;93702.38;;;4.79;100.00
53522;BME280;39398;48.382;9.802;2022-11-14T04:39:58;93696.00;;;4.74;100.00
53522;BME280;39398;48.382;9.802;2022-11-14T04:40:59;93688.28;;;4.64;100.00
53522;BME280;39398;48.382;9.802;2022-11-14T04:42:00;93691.28;;;4.85;100.00
53522;BME280;39398;48.382;9.802;2022-11-14T04:43:02;93691.59;;;4.90;100.00
53522;BME280;39398;48.382;9.802;2022-11-14T04:44:04;93686.84;;;4.86;100.00
53522;BME280;39398;48.382;9.802;2022-11-14T04:45:06;93685.19;;;4.77;100.00
53522;BME280;39398;48.382;9.802;2022-11-14T04:46:08;93684.34;;;4.52;100.00
53522;BME280;39398;48.382;9.802;2022-11-14T04:47:10;93686.81;;;4.61;100.00
53522;BME280;39398;48.382;9.802;2022-11-14T04:48:12;93690.53;;;4.34;100.00
53522;BME280;39398;48.382;9.802;2022-11-14T04:49:14;93685.31;;;4.34;100.00
53522;BME280;39398;48.382;9.802;2022-11-14T04:50:15;93684.22;;;4.11;100.00
53522;BME280;39398;48.382;9.802;2022-11-14T04:51:17;93676.81;;;4.40;100.00
53522;BME280;39398;48.382;9.802;2022-11-14T04:52:18;93679.78;;;4.62;100.00
53522;BME280;39398;48.382;9.802;2022-11-14T04:53:20;93677.81;;;4.72;100.00
53522;BME280;39398;48.382;9.802;2022-11-14T04:54:21;93670.66;;;4.82;100.00
53522;BME280;39398;48.382;9.802;2022-11-14T04:55:24;93676.34;;;4.61;100.00
53522;BME280;39398;48.382;9.802;2022-11-14T04:56:26;93664.75;;;4.64;100.00
53522;BME280;39398;48.382;9.802;2022-11-14T04:57:27;93662.31;;;4.71;100.00
53522;BME280;39398;48.382;9.802;2022-11-14T04:58:29;93658.88;;;4.70;100.00
53522;BME280;39398;48.382;9.802;2022-11-14T04:59:31;93660.84;;;4.84;100.00
53522;BME280;39398;48.382;9.802;2022-11-14T05:00:32;93657.75;;;4.73;100.00
53522;BME280;39398;48.382;9.802;2022-11-14T05:01:33;93654.16;;;4.74;100.00
53522;BME280;39398;48.382;9.802;2022-11-14T05:02:35;93660.03;;;4.84;100.00
53522;BME280;39398;48.382;9.802;2022-11-14T05:03:36;93673.59;;;4.63;100.00
53522;BME280;39398;48.382;9.802;2022-11-14T05:04:38;93669.78;;;4.41;100.00
53522;BME280;39398;48.382;9.802;2022-11-14T05:05:39;93674.88;;;4.59;100.00
53522;BME280;39398;48.382;9.802;2022-11-14T05:06:42;93671.44;;;4.50;100.00
53522;BME280;39398;48.382;9.802;2022-11-14T05:07:44;93672.94;;;4.61;100.00
53522;BME280;39398;48.382;9.802;2022-11-14T05:08:45;93673.22;;;4.41;100.00
53522;BME280;39398;48.382;9.802;2022-11-14T05:09:47;93677.34;;;4.69;100.00
53522;BME280;39398;48.382;9.802;2022-11-14T05:10:49;93671.63;;;4.57;100.00
53522;BME280;39398;48.382;9.802;2022-11-14T05:11:51;93673.91;;;4.60;100.00
53522;BME280;39398;48.382;9.802;2022-11-14T05:12:53;93670.97;;;4.71;100.00
53522;BME280;39398;48.382;9.802;2022-11-14T05:13:54;93673.59;;;4.87;100.00
53522;BME280;39398;48.382;9.802;2022-11-14T05:14:56;93667.38;;;4.72;100.00
53522;BME280;39398;48.382;9.802;2022-11-14T05:15:58;93664.78;;;4.88;100.00
53522;BME280;39398;48.382;9.802;2022-11-14T05:16:59;93675.41;;;4.87;100.00
53522;BME280;39398;48.382;9.802;2022-11-14T05:18:01;93663.16;;;4.79;100.00
53522;BME280;39398;48.382;9.802;2022-11-14T05:19:02;93669.34;;;4.86;100.00
53522;BME280;39398;48.382;9.802;2022-11-14T05:20:05;93667.06;;;4.83;100.00
53522;BME280;39398;48.382;9.802;2022-11-14T05:21:10;93666.25;;;4.99;100.00
53522;BME280;39398;48.382;9.802;2022-11-14T05:22:12;93669.69;;;5.08;100.00
53522;BME280;39398;48.382;9.802;2022-11-14T05:23:18;93678.50;;;5.15;100.00
53522;BME280;39398;48.382;9.802;2022-11-14T05:24:20;93670.50;;;5.00;100.00
53522;BME280;39398;48.382;9.802;2022-11-14T05:25:21;93673.94;;;5.09;100.00
53522;BME280;39398;48.382;9.802;2022-11-14T05:26:24;93675.72;;;4.84;100.00
53522;BME280;39398;48.382;9.802;2022-11-14T05:27:27;93677.16;;;4.62;100.00
53522;BME280;39398;48.382;9.802;2022-11-14T05:28:29;93682.25;;;4.72;100.00
53522;BME280;39398;48.382;9.802;2022-11-14T05:29:31;93681.28;;;4.81;100.00
53522;BME280;39398;48.382;9.802;2022-11-14T05:30:32;93682.41;;;4.62;100.00
53522;BME280;39398;48.382;9.802;2022-11-14T05:31:34;93684.16;;;4.45;100.00